Saguache, CO (81149)

2:40 PM MST on January 30, 2015 (GMT -0700)
Saguache | Change Station
CLOSE
Current Station
Airport
Location: Saguache,
Elevation: 7825 ft
Nearby Weather Stations

Elev 7825 ft 38.10 °N, 106.17 °W | Updated 21 minutes ago

Light Snow
Light Snow
32 °F
Feels Like 28 °F
N
5
Wind Variable Wind from ESE

Today
High -- | Low -- °F
--% Chance of Precip.
Yesterday
High -- | Low -- °F
Precip. -- in
7:10 AM 5:25 PM
Waxing Gibbous, 85% visible
Pressure 30.15 in
Visibility 1.8 miles
Clouds Scattered Clouds 300 ft
Overcast 1100 ft
Windchill 28 °F
Dew Point 28 °F
Humidity 87%
Rainfall 0.31 in
Snow Depth Not available.
UV 1 out of 12
Pollen 1.30 out of 12
Air Quality Not available.
Flu Activity Not available.
METAR K04V 302119Z AUTO 11004KT 1 3/4SM -SN SCT003 OVC011 00/M02 A3015 RMK AO2 P0001

More Conditions Fewer Conditions

Pressure 30.15 in
Visibility 1.8 miles
Clouds Scattered Clouds 300 ft
Overcast 1100 ft
Windchill 28 °F
Dew Point 28 °F
Humidity 87%
Rainfall 0.31 in
Snow Depth Not available.
UV 1 out of 12
Pollen 1.30 out of 12
Air Quality Not available.
Flu Activity Not available.
METAR K04V 302119Z AUTO 11004KT 1 3/4SM -SN SCT003 OVC011 00/M02 A3015 RMK AO2 P0001

More Conditions Fewer Conditions

10-Day Weather Forecast

Almanac

Astronomy

Jan. 30, 2015 Rise Set
Actual Time
Civil Twilight
Nautical Twilight
Astronomical Twilight
Moon
Length of Visible Light
Length of Day
Tomorrow will be .
, % of the Moon is Illuminated

Today's Extremes

State Highs State Lows

Community

WunderPhotos

Upload Photos

1,791,897 photos uploaded!

WunderBlogs® & News

Nearby

Air Quality

  Air Quality AQ Index Pollutant
Not available.

Snow Depth

Station Depth Elevation

Earthquake Activity

City Distance Mag. Time & Date
Minimum magnitude displayed is 2.5.

Coastal Water Temperatures

Place Temperature

Nearby Weather Stations